Time;durP1;ratioP1;P1;durP2;ratioP2;P2;SDS_P1;SDS_P2;PMS_P1;PMS_P2;Temp;Humidity;BMP_temperature;BMP_pressure;BME280_temperature;BME280_humidity;BME280_pressure;Samples;Min_cycle;Max_cycle;Signal;HPM_P1;HPM_P2
2022/03/14 00:02:48;;;;;;;;;;;;;;;7.06;64.33;100872.28;4993498;28;20075;-64
2022/03/14 00:05:52;;;;;;;18.45;13.07;;;;;;;6.82;65.41;100873.91;4992956;28;20297;-64
2022/03/14 00:08:57;;;;;;;;;;;;;;;6.91;66.31;100864.97;4993369;28;20109;-64
2022/03/14 00:12:00;;;;;;;14.80;10.57;;;;;;;6.58;67.75;100883.31;4992866;28;20379;-64
2022/03/14 00:15:08;;;;;;;14.77;11.50;;;;;;;6.72;65.81;100907.13;4988369;28;20045;-64
2022/03/14 00:18:12;;;;;;;14.73;10.93;;;;;;;6.69;66.61;100904.59;4992843;28;20096;-64
2022/03/14 00:21:18;;;;;;;15.95;11.00;;;;;;;6.54;67.29;100897.28;4989617;28;20049;-64
2022/03/14 00:24:21;;;;;;;15.25;11.57;;;;;;;6.78;67.54;100892.25;4992524;28;20128;-64
2022/03/14 00:27:25;;;;;;;15.27;10.90;;;;;;;6.95;66.22;100875.22;4992846;28;20537;-64
2022/03/14 00:30:28;;;;;;;15.95;11.50;;;;;;;6.90;65.91;100866.72;4992520;28;20049;-64
2022/03/14 00:33:31;;;;;;;;;;;;;;;6.81;66.95;100877.41;4993170;28;20048;-64
2022/03/14 00:36:35;;;;;;;18.02;11.52;;;;;;;6.79;68.06;100896.53;4992611;28;20458;-64
2022/03/14 00:39:38;;;;;;;;;;;;;;;6.83;67.99;100895.53;4993030;28;20042;-64
2022/03/14 00:42:43;;;;;;;17.13;11.02;;;;;;;6.80;68.51;100886.09;4992693;28;19964;-64
2022/03/14 00:45:47;;;;;;;15.27;10.80;;;;;;;6.51;70.02;100889.59;4992462;28;20061;-64
2022/03/14 00:48:50;;;;;;;15.93;11.38;;;;;;;6.53;70.58;100900.75;4992325;28;20048;-64
2022/03/14 00:51:53;;;;;;;18.42;11.13;;;;;;;6.55;70.60;100914.56;4992383;28;20045;-64
2022/03/14 00:54:56;;;;;;;14.45;11.95;;;;;;;6.39;72.28;100910.72;4992243;28;20125;-64
2022/03/14 00:57:59;;;;;;;;;;;;;;;6.19;72.37;100919.94;4987878;28;20054;-64
2022/03/14 01:01:03;;;;;;;17.45;12.80;;;;;;;6.14;73.20;100945.16;4992493;28;19920;-64
2022/03/14 01:04:06;;;;;;;16.70;13.05;;;;;;;6.24;73.43;100948.34;4988256;28;20133;-64
2022/03/14 01:07:10;;;;;;;15.13;12.93;;;;;;;6.60;71.77;100962.03;4988498;28;20057;-64
2022/03/14 01:10:13;;;;;;;15.50;12.05;;;;;;;6.78;71.64;100983.22;4992573;28;20049;-64
2022/03/14 01:13:16;;;;;;;;;;;;;;;6.54;73.39;100993.41;4992497;28;20049;-64
2022/03/14 01:16:19;;;;;;;17.27;13.30;;;;;;;6.74;71.97;100993.69;4992060;28;19924;-64
2022/03/14 01:19:23;;;;;;;;;;;;;;;6.66;73.35;100989.59;4992720;28;20041;-64
2022/03/14 01:22:26;;;;;;;15.35;11.93;;;;;;;6.80;73.29;100990.06;4992197;28;19921;-64
2022/03/14 01:25:29;;;;;;;;;;;;;;;6.87;72.63;101007.19;4992426;28;20041;-64
2022/03/14 01:28:33;;;;;;;18.83;13.02;;;;;;;6.70;73.44;101010.28;4991988;28;19924;-64
2022/03/14 01:31:37;;;;;;;15.52;13.35;;;;;;;6.58;74.27;101017.56;4992018;28;20054;-64
2022/03/14 01:34:40;;;;;;;17.55;12.85;;;;;;;6.72;73.74;101021.47;4992099;28;20054;-64
2022/03/14 01:37:47;;;;;;;16.08;12.48;;;;;;;6.74;73.54;101030.06;4994317;28;20409;-64
2022/03/14 01:40:50;;;;;;;17.27;12.02;;;;;;;6.70;73.73;101033.66;4995734;28;20095;-64
2022/03/14 01:43:54;;;;;;;;;;;;;;;6.76;73.08;101032.63;4996307;28;20041;-64
2022/03/14 01:46:59;;;;;;;15.73;12.98;;;;;;;6.77;72.98;101033.50;4995404;28;20482;-64
2022/03/14 01:50:05;;;;;;;17.35;12.40;;;;;;;6.67;73.71;101033.75;4991106;28;20142;-64
2022/03/14 01:53:09;;;;;;;15.77;12.70;;;;;;;6.60;74.12;101037.38;4995392;28;20073;-64
2022/03/14 01:56:12;;;;;;;16.70;11.45;;;;;;;6.52;74.90;101036.78;4995286;28;20048;-64
2022/03/14 01:59:16;;;;;;;15.27;11.73;;;;;;;6.41;75.43;101043.97;4995273;28;20110;-63
2022/03/14 02:02:19;;;;;;;18.25;12.40;;;;;;;6.38;75.73;101050.13;4994321;28;20073;-64
2022/03/14 02:05:23;;;;;;;15.15;12.15;;;;;;;6.54;74.62;101042.78;4995406;28;20081;-64
2022/03/14 02:08:26;;;;;;;;;;;;;;;6.54;74.97;101047.97;4995841;28;20077;-64
2022/03/14 02:11:30;;;;;;;15.00;12.13;;;;;;;6.60;74.50;101047.78;4995049;28;19920;-64
2022/03/14 02:14:39;;;;;;;17.45;12.27;;;;;;;6.45;75.63;101056.03;4994992;28;20057;-64
2022/03/14 02:17:42;;;;;;;17.40;11.95;;;;;;;6.45;76.42;101056.88;4994964;28;20088;-64
2022/03/14 02:20:45;;;;;;;;;;;;;;;6.41;76.75;101064.75;4995320;28;20173;-64
2022/03/14 02:23:49;;;;;;;15.82;12.15;;;;;;;6.42;76.94;101071.69;4994916;28;19960;-64
2022/03/14 02:26:52;;;;;;;16.50;12.25;;;;;;;6.55;76.55;101067.03;4982600;28;20046;-65
2022/03/14 02:29:55;;;;;;;;;;;;;;;6.55;77.24;101073.06;4995188;28;20048;-64
2022/03/14 02:32:58;;;;;;;17.17;12.25;;;;;;;6.46;77.99;101081.94;4994721;28;19928;-64
2022/03/14 02:36:02;;;;;;;17.15;11.55;;;;;;;6.53;78.30;101090.44;4994748;28;20065;-64
2022/03/14 02:39:06;;;;;;;21.23;12.18;;;;;;;6.58;77.87;101096.38;4994660;28;20412;-64
2022/03/14 02:42:09;;;;;;;17.17;12.07;;;;;;;6.53;78.09;101099.06;4994569;28;20053;-64
2022/03/14 02:45:13;;;;;;;15.32;11.93;;;;;;;6.49;77.97;101107.00;4994411;28;20049;-64
2022/03/14 02:48:16;;;;;;;15.18;12.60;;;;;;;6.46;79.22;101114.88;4993380;28;20515;-64
2022/03/14 02:51:20;;;;;;;20.73;13.80;;;;;;;6.53;79.10;101116.41;4994509;28;20481;-64
2022/03/14 02:54:24;;;;;;;15.32;12.63;;;;;;;6.57;79.26;101112.81;4994248;28;20184;-64
2022/03/14 02:57:29;;;;;;;19.58;13.40;;;;;;;6.43;80.71;101125.34;4994241;28;20112;-64
2022/03/14 03:00:35;;;;;;;20.13;12.52;;;;;;;6.43;81.04;101131.38;4994117;28;20176;-64
2022/03/14 03:03:38;;;;;;;17.80;12.88;;;;;;;6.58;81.72;101140.53;4994048;28;20164;-63
2022/03/14 03:06:42;;;;;;;18.50;13.43;;;;;;;6.49;81.69;101139.00;4993983;28;20044;-63
2022/03/14 03:09:46;;;;;;;15.85;13.07;;;;;;;6.43;81.90;101143.53;4994053;28;20076;-63
2022/03/14 03:12:49;;;;;;;19.73;14.15;;;;;;;6.42;81.63;101150.47;4993879;28;20073;-63
2022/03/14 03:15:53;;;;;;;21.02;14.77;;;;;;;6.36;81.96;101149.75;4993769;28;20161;-64
2022/03/14 03:18:57;;;;;;;21.92;15.38;;;;;;;6.39;82.11;101158.34;4988353;28;20041;-64
2022/03/14 03:22:02;;;;;;;17.85;14.45;;;;;;;6.35;82.34;101159.31;4993972;28;20124;-64
2022/03/14 03:25:06;;;;;;;18.73;15.23;;;;;;;6.48;81.75;101170.25;4993743;28;20054;-64
2022/03/14 03:28:09;;;;;;;19.60;13.98;;;;;;;6.44;82.47;101176.38;4993848;28;20126;-64
2022/03/14 03:31:18;;;;;;;21.08;13.57;;;;;;;6.34;83.24;101177.50;4993703;28;20456;-64
2022/03/14 03:34:22;;;;;;;19.73;13.77;;;;;;;6.29;83.95;101181.09;4993572;28;20108;-63
2022/03/14 03:37:25;;;;;;;;;;;;;;;6.26;84.22;101188.09;4993709;28;20089;-64
2022/03/14 03:40:28;;;;;;;18.38;13.80;;;;;;;6.37;83.91;101191.28;4993852;28;19920;-64
2022/03/14 03:43:32;;;;;;;18.15;14.40;;;;;;;6.40;83.38;101200.75;4993303;28;20711;-64
2022/03/14 03:46:35;;;;;;;;;;;;;;;6.52;83.48;101203.03;4993659;28;20062;-64
2022/03/14 03:49:38;;;;;;;16.50;14.02;;;;;;;6.65;83.09;101207.03;4981520;28;20414;-64
2022/03/14 03:52:42;;;;;;;23.63;15.23;;;;;;;6.65;82.80;101209.63;4993383;28;20049;-63
2022/03/14 03:55:46;;;;;;;18.15;13.77;;;;;;;6.59;83.17;101212.38;4981275;28;20042;-64
2022/03/14 03:58:49;;;;;;;;;;;;;;;6.53;83.08;101215.97;4993595;28;20057;-64
2022/03/14 04:01:52;;;;;;;16.90;13.98;;;;;;;6.57;83.39;101210.72;4993178;28;19988;-64
2022/03/14 04:04:57;;;;;;;16.17;13.00;;;;;;;6.47;83.41;101225.66;4993004;28;20518;-64
2022/03/14 04:08:02;;;;;;;19.02;14.18;;;;;;;6.44;83.67;101234.38;4992967;28;20045;-64
2022/03/14 04:11:06;;;;;;;19.05;13.95;;;;;;;6.42;84.05;101238.78;4992863;28;20460;-64
2022/03/14 04:14:10;;;;;;;18.83;13.63;;;;;;;6.36;84.57;101243.28;4989132;28;20447;-63
2022/03/14 04:17:14;;;;;;;18.70;14.50;;;;;;;6.29;84.92;101239.97;4992744;28;20053;-64
2022/03/14 04:20:21;;;;;;;17.92;14.48;;;;;;;6.27;84.91;101239.97;4992766;28;20084;-64
2022/03/14 04:23:24;;;;;;;17.80;15.38;;;;;;;6.21;85.28;101247.91;4992746;28;20046;-64
2022/03/14 04:26:27;;;;;;;23.02;14.88;;;;;;;6.22;85.47;101238.38;4992638;28;20096;-64
2022/03/14 04:29:31;;;;;;;;;;;;;;;6.24;85.41;101234.88;4993074;28;20134;-64
2022/03/14 04:32:34;;;;;;;14.82;12.52;;;;;;;6.40;84.64;101244.91;4992486;28;20001;-64
2022/03/14 04:35:38;;;;;;;19.17;13.73;;;;;;;6.40;84.81;101239.69;4992487;28;20097;-64
2022/03/14 04:38:41;;;;;;;18.67;14.93;;;;;;;6.29;85.02;101248.59;4992639;28;20752;-64
2022/03/14 04:41:44;;;;;;;20.67;15.45;;;;;;;6.29;85.18;101246.00;4992423;28;20416;-64
2022/03/14 04:44:52;;;;;;;16.42;12.90;;;;;;;6.28;84.96;101262.47;4992227;28;20061;-64
2022/03/14 04:47:55;;;;;;;15.93;13.18;;;;;;;6.38;85.06;101257.06;4991949;28;20185;-64
2022/03/14 04:50:59;;;;;;;15.73;13.68;;;;;;;6.48;84.45;101263.78;4992089;28;20054;-64
2022/03/14 04:54:03;;;;;;;19.55;15.00;;;;;;;6.56;83.91;101271.38;4992508;28;20081;-64
2022/03/14 04:57:06;;;;;;;;;;;;;;;6.48;84.25;101277.63;4988414;28;20053;-64
2022/03/14 05:00:10;;;;;;;20.30;15.60;;;;;;;6.18;85.93;101281.75;4992175;28;19920;-65
2022/03/14 05:03:14;;;;;;;19.98;14.82;;;;;;;6.27;86.11;101289.34;4992482;28;20093;-65
2022/03/14 05:06:18;;;;;;;19.92;14.20;;;;;;;6.48;85.39;101294.94;4992021;28;20630;-65
2022/03/14 05:09:21;;;;;;;19.73;14.10;;;;;;;6.47;85.21;101299.25;4992234;28;20137;-65
2022/03/14 05:12:24;;;;;;;18.15;15.25;;;;;;;6.44;85.24;101294.13;4994444;28;20424;-65
2022/03/14 05:15:29;;;;;;;19.08;14.63;;;;;;;6.49;84.77;101301.84;4996130;28;20049;-65
2022/03/14 05:18:32;;;;;;;19.77;16.13;;;;;;;6.56;85.00;101302.56;4996108;28;20049;-65
2022/03/14 05:21:36;;;;;;;19.95;14.88;;;;;;;6.63;84.56;101304.97;4995936;28;20077;-65
2022/03/14 05:24:39;;;;;;;;;;;;;;;6.57;85.21;101302.50;4996359;28;20045;-65
2022/03/14 05:27:42;;;;;;;20.27;14.70;;;;;;;6.56;84.85;101303.41;4995992;28;19945;-65
2022/03/14 05:30:45;;;;;;;16.48;13.60;;;;;;;6.64;84.37;101301.50;4994949;28;20120;-65
2022/03/14 05:33:48;;;;;;;;;;;;;;;6.61;84.77;101306.75;4996580;28;20096;-65
2022/03/14 05:36:52;;;;;;;17.17;13.88;;;;;;;6.58;85.08;101312.03;4995906;28;20017;-65
2022/03/14 05:39:56;;;;;;;17.20;14.80;;;;;;;6.55;85.40;101332.88;4996052;28;20130;-65
2022/03/14 05:43:06;;;;;;;17.38;13.68;;;;;;;6.54;85.31;101328.59;4995875;28;20093;-65
2022/03/14 05:46:09;;;;;;;17.45;14.13;;;;;;;6.59;84.63;101334.50;4994865;28;20263;-66
2022/03/14 05:49:12;;;;;;;17.33;14.50;;;;;;;6.41;86.20;101340.13;4995486;28;20057;-65
2022/03/14 05:52:18;;;;;;;16.08;13.95;;;;;;;6.53;85.92;101345.03;4995367;28;20045;-65
2022/03/14 05:55:21;;;;;;;17.05;14.75;;;;;;;6.53;85.21;101350.25;4995378;28;20547;-65
2022/03/14 05:58:24;;;;;;;;;;;;;;;6.64;85.23;101347.41;4995715;28;20153;-65
2022/03/14 06:01:27;;;;;;;27.08;19.08;;;;;;;6.59;85.45;101355.31;4995462;28;19960;-65
2022/03/14 06:04:31;;;;;;;;;;;;;;;6.24;86.85;101377.69;4996178;28;20420;-65
2022/03/14 06:07:34;;;;;;;20.08;16.90;;;;;;;6.47;85.98;101381.56;4995495;28;20001;-65
2022/03/14 06:10:37;;;;;;;;;;;;;;;6.50;85.82;101377.13;4995576;28;20049;-65
2022/03/14 06:13:41;;;;;;;;;;;;;;;6.63;85.28;101382.06;4995512;28;20409;-65
2022/03/14 06:16:44;;;;;;;23.67;17.02;;;;;;;6.46;86.66;101382.44;4995366;28;19972;-65
2022/03/14 06:19:49;;;;;;;27.58;19.98;;;;;;;6.61;86.04;101394.25;4994309;28;20050;-65
2022/03/14 06:22:52;;;;;;;25.42;19.50;;;;;;;6.75;85.78;101407.78;4995034;28;20104;-65
2022/03/14 06:25:57;;;;;;;20.70;15.95;;;;;;;6.57;86.44;101409.03;4995071;28;20089;-65
2022/03/14 06:29:01;;;;;;;22.55;17.52;;;;;;;6.50;87.34;101415.25;4988597;28;20053;-65
2022/03/14 06:32:05;;;;;;;19.05;14.55;;;;;;;6.64;87.65;101418.44;4990403;28;20106;-65
2022/03/14 06:35:13;;;;;;;18.13;14.27;;;;;;;6.82;87.12;101426.72;4991302;28;20040;-65
2022/03/14 06:38:16;;;;;;;20.77;13.65;;;;;;;6.99;86.38;101427.19;4994557;28;20081;-65
2022/03/14 06:41:19;;;;;;;;;;;;;;;6.94;87.00;101439.44;4995279;28;20523;-65
2022/03/14 06:44:27;;;;;;;13.52;11.25;;;;;;;6.99;86.32;101438.44;4994712;28;19925;-65
2022/03/14 06:47:32;;;;;;;16.45;12.45;;;;;;;6.91;86.60;101434.31;4993999;28;20129;-65
2022/03/14 06:50:38;;;;;;;16.17;10.98;;;;;;;7.01;86.75;101445.34;4993911;28;20134;-65
2022/03/14 06:53:42;;;;;;;15.27;10.80;;;;;;;7.18;85.99;101440.63;4994518;28;20053;-65
2022/03/14 06:56:47;;;;;;;16.75;12.00;;;;;;;7.18;86.25;101448.44;4994401;28;20527;-65
2022/03/14 06:59:50;;;;;;;15.10;12.52;;;;;;;7.25;86.37;101455.19;4982131;28;20049;-65
2022/03/14 07:02:54;;;;;;;15.57;10.02;;;;;;;7.21;86.75;101459.63;4994143;28;20049;-65
2022/03/14 07:05:57;;;;;;;15.73;14.18;;;;;;;7.21;87.02;101463.94;4994105;28;20069;-65
2022/03/14 07:09:02;;;;;;;15.80;12.93;;;;;;;7.33;87.26;101462.81;4981768;28;20052;-65
2022/03/14 07:12:09;;;;;;;14.77;10.88;;;;;;;7.39;87.22;101471.31;4989528;28;20088;-65
2022/03/14 07:15:16;;;;;;;12.27;9.82;;;;;;;7.30;88.28;101474.13;4993849;28;20049;-65
2022/03/14 07:18:20;;;;;;;11.60;9.70;;;;;;;7.45;87.59;101480.72;4993900;28;20057;-65
2022/03/14 07:21:28;;;;;;;13.20;11.10;;;;;;;7.35;88.97;101487.06;4993853;28;20053;-65
2022/03/14 07:24:32;;;;;;;8.68;5.72;;;;;;;7.32;88.23;101492.31;4993707;28;20138;-65
2022/03/14 07:27:35;;;;;;;11.40;5.88;;;;;;;7.31;88.50;101498.44;4993834;28;20069;-65
2022/03/14 07:30:39;;;;;;;7.72;6.13;;;;;;;7.45;89.23;101499.78;4993435;28;20452;-65
2022/03/14 07:33:43;;;;;;;8.18;5.60;;;;;;;7.50;89.45;101502.31;4993464;28;20100;-65
2022/03/14 07:36:47;;;;;;;8.10;4.60;;;;;;;7.57;88.55;101506.47;4993551;28;20041;-65
2022/03/14 07:39:50;;;;;;;5.72;2.55;;;;;;;7.82;86.00;101501.50;4993484;28;20080;-65
2022/03/14 07:42:56;;;;;;;5.38;3.05;;;;;;;7.89;86.42;101510.88;4993466;28;20048;-65
2022/03/14 07:46:02;;;;;;;6.13;2.22;;;;;;;7.96;85.12;101515.94;4976223;28;20531;-66
2022/03/14 07:49:07;;;;;;;5.32;2.25;;;;;;;7.94;83.42;101515.94;4993517;28;20420;-65
2022/03/14 07:52:10;;;;;;;7.47;2.60;;;;;;;8.06;83.35;101520.84;4993215;28;20049;-65
2022/03/14 07:55:14;;;;;;;;;;;;;;;8.04;81.46;101529.59;4990548;28;20100;-65
2022/03/14 07:58:18;;;;;;;6.72;1.92;;;;;;;7.96;81.05;101527.19;4993092;28;19924;-65
2022/03/14 08:01:21;;;;;;;6.60;2.10;;;;;;;8.06;81.19;101531.25;4989749;28;20091;-65
2022/03/14 08:04:24;;;;;;;8.52;2.72;;;;;;;8.05;80.72;101537.38;4990336;28;20116;-66
2022/03/14 08:07:28;;;;;;;29.75;5.03;;;;;;;8.02;80.46;101536.59;4989052;28;20085;-66
2022/03/14 08:10:31;;;;;;;;;;;;;;;8.14;80.32;101539.75;4983750;28;20097;-66
2022/03/14 08:13:35;;;;;;;22.58;6.97;;;;;;;8.05;81.03;101555.63;4969592;28;19925;-66
2022/03/14 08:16:38;;;;;;;6.70;2.42;;;;;;;8.01;79.79;101567.00;4969942;28;20670;-65
2022/03/14 08:19:41;;;;;;;7.57;2.20;;;;;;;8.05;79.33;101573.00;4970533;28;20069;-65
2022/03/14 08:22:45;;;;;;;;;;;;;;;8.19;78.33;101577.84;4970911;28;20142;-65
2022/03/14 08:25:48;;;;;;;8.43;2.20;;;;;;;8.13;79.45;101576.25;4969400;28;19976;-66
2022/03/14 08:28:51;;;;;;;;;;;;;;;8.13;78.68;101571.88;4969816;28;20054;-65
2022/03/14 08:31:57;;;;;;;4.60;2.00;;;;;;;8.14;77.94;101576.22;4969612;28;19920;-66
2022/03/14 08:35:06;;;;;;;6.35;2.10;;;;;;;8.23;77.92;101577.75;4970609;28;20512;-65
2022/03/14 08:38:11;;;;;;;7.40;2.17;;;;;;;8.21;77.54;101582.13;4970048;28;20057;-66
2022/03/14 08:41:16;;;;;;;9.95;2.55;;;;;;;8.27;77.19;101589.78;4967012;28;20045;-66
2022/03/14 08:44:19;;;;;;;5.95;1.90;;;;;;;8.29;76.86;101592.34;4970169;28;20054;-66
2022/03/14 08:47:24;;;;;;;9.18;2.20;;;;;;;8.33;76.40;101601.81;4957021;28;20146;-65
2022/03/14 08:50:27;;;;;;;6.03;1.48;;;;;;;8.36;76.56;101609.56;4949914;28;20054;-65
2022/03/14 08:53:30;;;;;;;10.52;1.98;;;;;;;8.36;76.10;101606.94;4949476;29;20074;-66
2022/03/14 08:56:37;;;;;;;6.35;2.17;;;;;;;8.41;76.69;101628.56;4949743;29;20046;-66
2022/03/14 08:59:40;;;;;;;7.32;2.45;;;;;;;8.47;76.53;101628.41;4950653;29;20185;-66
2022/03/14 09:02:44;;;;;;;;;;;;;;;8.41;76.29;101633.78;4951075;29;20102;-66
2022/03/14 09:05:47;;;;;;;9.23;2.67;;;;;;;8.45;75.08;101640.59;4950586;29;19969;-66
2022/03/14 09:08:50;;;;;;;7.88;1.83;;;;;;;8.47;75.75;101638.81;4949540;28;20105;-66
2022/03/14 09:11:54;;;;;;;7.30;1.95;;;;;;;8.51;75.31;101650.03;4949937;29;20050;-66
2022/03/14 09:14:57;;;;;;;;;;;;;;;8.62;75.06;101640.19;4950798;29;20409;-66
2022/03/14 09:18:03;;;;;;;10.65;2.50;;;;;;;8.73;74.12;101650.31;4950429;29;19976;-66
2022/03/14 09:21:06;;;;;;;7.15;1.70;;;;;;;8.71;73.74;101650.38;4950146;29;20118;-66
2022/03/14 09:24:09;;;;;;;8.50;2.30;;;;;;;8.94;73.36;101660.19;4949736;29;20163;-66
2022/03/14 09:27:12;;;;;;;9.73;4.50;;;;;;;8.95;73.92;101669.72;4946377;29;20046;-66
2022/03/14 09:30:16;;;;;;;;;;;;;;;8.75;72.75;101670.25;4950213;29;20413;-65
2022/03/14 09:33:21;;;;;;;7.55;3.00;;;;;;;8.77;72.85;101673.66;4950168;29;19924;-66
2022/03/14 09:36:25;;;;;;;10.65;4.68;;;;;;;8.79;72.37;101677.09;4950014;28;20109;-65
2022/03/14 09:39:28;;;;;;;8.45;2.50;;;;;;;8.78;72.58;101679.75;4950319;28;20695;-65
2022/03/14 09:42:35;;;;;;;7.47;2.58;;;;;;;9.02;71.26;101681.69;4949762;28;20098;-65
2022/03/14 09:45:39;;;;;;;7.90;2.10;;;;;;;9.00;70.68;101683.50;4949725;28;20576;-66
2022/03/14 09:48:50;;;;;;;4.93;1.75;;;;;;;9.14;70.37;101687.47;4941747;29;20413;-65
2022/03/14 09:51:54;;;;;;;3.75;1.27;;;;;;;9.11;70.66;101683.19;4963247;28;20050;-66
2022/03/14 09:54:57;;;;;;;5.80;1.35;;;;;;;9.07;69.89;101695.47;4968300;28;20109;-66
2022/03/14 09:58:03;;;;;;;8.60;3.90;;;;;;;9.03;70.04;101696.47;4965484;28;20587;-66
2022/03/14 10:01:07;;;;;;;8.02;3.70;;;;;;;8.99;69.11;101688.75;4972831;28;20054;-66
2022/03/14 10:04:12;;;;;;;5.05;1.40;;;;;;;9.14;69.94;101693.53;4972653;28;20050;-66
2022/03/14 10:07:17;;;;;;;6.53;2.53;;;;;;;9.40;68.54;101691.97;4972904;28;20053;-66
2022/03/14 10:10:20;;;;;;;6.40;2.03;;;;;;;9.37;68.31;101695.50;4960052;28;20045;-66
2022/03/14 10:13:24;;;;;;;5.50;1.45;;;;;;;9.53;68.11;101696.78;4972191;28;20041;-66
2022/03/14 10:16:28;;;;;;;8.43;1.30;;;;;;;9.35;67.97;101696.44;4971998;28;20082;-67
2022/03/14 10:19:37;;;;;;;;;;;;;;;9.54;67.91;101708.94;4964665;28;20078;-65
2022/03/14 10:22:40;;;;;;;3.88;1.70;;;;;;;9.61;67.97;101703.56;4964502;28;19925;-66
2022/03/14 10:25:44;;;;;;;5.63;2.17;;;;;;;9.68;67.96;101707.69;4972290;28;20124;-66
2022/03/14 10:28:53;;;;;;;3.90;1.40;;;;;;;9.73;68.18;101705.78;4972412;28;20108;-66
2022/03/14 10:31:57;;;;;;;5.15;1.95;;;;;;;9.68;68.61;101712.91;4967356;28;20053;-66
2022/03/14 10:35:01;;;;;;;;;;;;;;;9.66;66.36;101715.53;4971588;28;20130;-66
2022/03/14 10:38:07;;;;;;;3.63;1.17;;;;;;;9.72;63.98;101719.75;4971932;28;19925;-66
2022/03/14 10:41:17;;;;;;;4.25;1.30;;;;;;;9.69;63.99;101714.59;4971549;28;20138;-65
2022/03/14 10:44:24;;;;;;;4.20;1.52;;;;;;;9.74;64.17;101721.41;4971928;28;20065;-66
2022/03/14 10:47:27;;;;;;;3.38;1.27;;;;;;;9.68;62.46;101726.81;4982407;28;20068;-66
2022/03/14 10:50:35;;;;;;;5.63;2.00;;;;;;;9.83;62.78;101722.91;4990977;28;20524;-66
2022/03/14 10:53:44;;;;;;;5.32;1.52;;;;;;;9.79;63.05;101736.94;4990877;28;20045;-66
2022/03/14 10:57:11;;;;;;;4.88;1.55;;;;;;;9.86;63.24;101733.25;4990886;28;20126;-67
2022/03/14 11:00:15;;;;;;;2.67;0.80;;;;;;;9.94;62.28;101744.31;4991581;28;20053;-66
2022/03/14 11:03:35;;;;;;;2.15;0.70;;;;;;;10.04;62.47;101737.06;4989562;28;20073;-66
2022/03/14 11:06:38;;;;;;;2.50;1.00;;;;;;;9.99;60.78;101746.81;4953120;28;20075;-67
2022/03/14 11:09:50;;;;;;;3.83;1.10;;;;;;;9.98;60.42;101745.94;4963763;28;20050;-66
2022/03/14 11:12:54;;;;;;;2.53;0.50;;;;;;;10.09;59.23;101747.38;4971399;28;20671;-66
2022/03/14 11:15:58;;;;;;;2.92;0.50;;;;;;;10.14;59.01;101750.69;4971561;28;20045;-66
2022/03/14 11:19:02;;;;;;;1.52;0.38;;;;;;;10.19;59.48;101751.41;4952305;29;20101;-66
2022/03/14 11:22:09;;;;;;;1.95;0.57;;;;;;;10.15;59.10;101758.50;4951645;29;20176;-66
2022/03/14 11:25:16;;;;;;;3.25;0.70;;;;;;;10.13;58.76;101755.06;4951657;29;20086;-66
2022/03/14 11:28:21;;;;;;;3.60;0.85;;;;;;;10.00;59.57;101759.81;4950768;28;20038;-66
2022/03/14 11:31:24;;;;;;;9.73;6.05;;;;;;;10.01;58.63;101781.56;4964703;28;20096;-66
2022/03/14 11:34:30;;;;;;;4.90;2.45;;;;;;;9.93;59.20;101758.28;4990713;28;20041;-66
2022/03/14 11:37:35;;;;;;;14.13;8.10;;;;;;;10.02;59.23;101760.63;4990578;28;20117;-66
2022/03/14 11:40:38;;;;;;;16.85;11.63;;;;;;;10.19;59.21;101757.50;4990999;28;20571;-66
2022/03/14 11:43:42;;;;;;;7.55;4.18;;;;;;;10.07;59.30;101770.94;4990658;28;20049;-66
2022/03/14 11:46:46;;;;;;;4.40;1.77;;;;;;;10.19;59.64;101759.25;4989590;28;20323;-66
2022/03/14 11:49:49;;;;;;;6.38;2.72;;;;;;;10.20;59.94;101772.25;4990137;28;20112;-67
2022/03/14 11:52:55;;;;;;;5.18;2.80;;;;;;;10.14;59.79;101762.00;4990201;28;20132;-67
2022/03/14 11:56:02;;;;;;;3.58;1.80;;;;;;;10.38;59.60;101752.56;4989713;28;20125;-67
2022/03/14 11:59:10;;;;;;;2.35;0.88;;;;;;;10.58;58.60;101772.84;4985710;28;20044;-66
2022/03/14 12:02:13;;;;;;;2.47;0.80;;;;;;;10.30;58.12;101775.47;4951231;29;20101;-66
2022/03/14 12:05:32;;;;;;;4.10;1.42;;;;;;;10.35;58.13;101760.53;4951605;29;20519;-66
2022/03/14 12:08:38;;;;;;;4.57;1.83;;;;;;;10.59;59.11;101774.59;4951253;29;20054;-67
2022/03/14 12:11:42;;;;;;;2.30;0.70;;;;;;;10.25;57.89;101770.38;4943786;29;20191;-66
2022/03/14 12:14:51;;;;;;;4.15;1.08;;;;;;;10.47;58.15;101780.19;4950912;28;20106;-66
2022/03/14 12:17:55;;;;;;;3.17;1.13;;;;;;;10.45;58.71;101761.94;4951290;29;20079;-66
2022/03/14 12:20:59;;;;;;;8.07;4.60;;;;;;;10.64;57.59;101758.72;4946073;28;20070;-65
2022/03/14 12:24:03;;;;;;;5.38;3.47;;;;;;;10.99;57.53;101757.53;4950929;29;20058;-65
2022/03/14 12:27:26;;;;;;;3.25;1.30;;;;;;;10.86;57.76;101744.03;4950606;29;20184;-66
2022/03/14 12:30:31;;;;;;;2.67;0.90;;;;;;;10.75;58.23;101751.38;4950679;29;20131;-66
2022/03/14 12:33:36;;;;;;;5.93;1.00;;;;;;;10.67;57.60;101756.00;4950873;29;20050;-66
2022/03/14 12:36:41;;;;;;;3.63;1.38;;;;;;;10.54;58.42;101747.72;4950864;29;20131;-67
2022/03/14 12:39:45;;;;;;;2.78;1.05;;;;;;;10.63;57.99;101749.19;4950482;29;20126;-66
2022/03/14 12:42:49;;;;;;;4.53;0.88;;;;;;;10.48;58.01;101767.06;4951110;28;20099;-66
2022/03/14 12:46:00;;;;;;;4.35;1.13;;;;;;;10.77;57.62;101754.78;4988834;28;20599;-67
2022/03/14 12:49:04;;;;;;;3.15;1.15;;;;;;;10.84;57.61;101753.69;4968895;28;20066;-67
2022/03/14 12:52:16;;;;;;;5.57;1.27;;;;;;;10.89;57.40;101756.16;4969053;28;20093;-67
2022/03/14 12:55:20;;;;;;;3.42;0.98;;;;;;;11.11;56.78;101749.28;4969136;28;20176;-67
2022/03/14 12:58:28;;;;;;;5.13;1.80;;;;;;;11.61;56.02;101750.97;4968557;28;20049;-66
2022/03/14 13:01:36;;;;;;;3.80;1.25;;;;;;;12.03;54.31;101750.31;4969358;28;20128;-64
2022/03/14 13:04:41;;;;;;;4.00;1.15;;;;;;;12.23;52.17;101733.78;4968922;28;20050;-64
2022/03/14 13:07:44;;;;;;;3.67;1.20;;;;;;;12.47;52.07;101730.16;4969533;28;20105;-64
2022/03/14 13:10:48;;;;;;;;;;;;;;;13.35;50.32;101722.06;4970001;28;20104;-64
2022/03/14 13:13:52;;;;;;;3.58;1.10;;;;;;;12.90;50.24;101724.91;4968735;28;19925;-64
2022/03/14 13:16:55;;;;;;;4.63;1.40;;;;;;;12.38;52.98;101737.53;4967806;28;20049;-64
2022/03/14 13:19:58;;;;;;;4.10;1.30;;;;;;;13.23;51.30;101738.31;4964170;28;20836;-64
2022/03/14 13:23:13;;;;;;;6.55;1.75;;;;;;;14.58;47.33;101732.06;4969137;28;20046;-64
2022/03/14 13:26:18;;;;;;;3.97;1.10;;;;;;;16.83;41.92;101727.75;4968255;28;20457;-67
2022/03/14 13:29:21;;;;;;;6.13;1.52;;;;;;;13.60;48.56;101727.06;4968804;28;20049;-64
2022/03/14 13:32:27;;;;;;;5.47;2.80;;;;;;;12.37;51.78;101755.06;4969343;28;20042;-64
2022/03/14 13:35:30;;;;;;;19.65;10.90;;;;;;;12.80;50.48;101751.53;4973524;28;20527;-64
2022/03/14 13:38:37;;;;;;;26.33;13.68;;;;;;;14.56;46.17;101755.00;4973665;28;20045;-64
2022/03/14 13:41:45;;;;;;;9.40;5.00;;;;;;;13.33;47.98;101765.06;4952753;28;20571;-64
2022/03/14 13:44:49;;;;;;;5.32;2.70;;;;;;;12.00;51.27;101769.63;4954085;29;20082;-64
2022/03/14 13:47:59;;;;;;;6.15;2.78;;;;;;;12.69;49.05;101760.75;4967424;28;20093;-64
2022/03/14 13:51:09;;;;;;;4.38;2.00;;;;;;;13.90;46.74;101761.56;4972572;28;20077;-64
2022/03/14 13:54:23;;;;;;;;;;;;;;;13.60;46.89;101763.84;4979191;28;20037;-64
2022/03/14 13:57:26;;;;;;;4.05;1.73;;;;;;;13.03;47.69;101762.84;4992370;28;19980;-64
2022/03/14 14:00:31;;;;;;;3.25;1.10;;;;;;;12.56;49.09;101765.66;4992184;28;20519;-64
2022/03/14 14:03:35;;;;;;;6.40;1.50;;;;;;;12.42;49.59;101763.59;4991797;28;20045;-67
2022/03/14 14:06:48;;;;;;;4.80;1.73;;;;;;;12.32;48.72;101764.91;4991591;28;20101;-67
2022/03/14 14:09:53;;;;;;;4.57;1.08;;;;;;;12.08;49.18;101767.53;4987944;28;20057;-67
2022/03/14 14:13:00;;;;;;;5.35;1.73;;;;;;;11.72;50.39;101764.53;4990778;28;20078;-66
2022/03/14 14:16:24;;;;;;;2.90;1.15;;;;;;;12.10;49.65;101759.63;4991432;28;20053;-66
2022/03/14 14:19:28;;;;;;;6.88;1.50;;;;;;;12.47;48.48;101766.03;4991604;28;20049;-66
2022/03/14 14:22:34;;;;;;;6.75;1.55;;;;;;;13.86;45.08;101769.69;4990620;28;20124;-64
2022/03/14 14:25:44;;;;;;;7.25;2.17;;;;;;;15.45;42.52;101772.38;4991287;28;20112;-64
2022/03/14 14:28:48;;;;;;;5.07;1.77;;;;;;;16.83;38.37;101761.22;4991554;28;20053;-64